createdAt,value
2016-08-03T00:00:55.100Z,16.78
2016-08-03T00:01:40.153Z,16.82
2016-08-03T00:02:40.180Z,16.81
2016-08-03T00:03:40.209Z,16.73
2016-08-03T00:04:40.228Z,16.66
2016-08-03T00:05:40.255Z,16.79
2016-08-03T00:06:40.282Z,16.76
2016-08-03T00:07:40.309Z,16.64
2016-08-03T00:08:40.339Z,16.68
2016-08-03T00:09:40.362Z,16.7
2016-08-03T00:10:40.386Z,16.66
2016-08-03T00:11:40.412Z,16.66
2016-08-03T00:12:40.449Z,16.52
2016-08-03T00:14:55.411Z,16.48
2016-08-03T00:15:40.519Z,16.49
2016-08-03T00:16:40.593Z,16.46
2016-08-03T00:17:40.572Z,16.41
2016-08-03T00:18:40.644Z,16.49
2016-08-03T00:19:40.621Z,16.35
2016-08-03T00:20:40.644Z,16.41
2016-08-03T00:21:40.674Z,16.3
2016-08-03T00:22:40.696Z,16.35
2016-08-03T00:23:40.776Z,16.28
2016-08-03T00:24:40.753Z,16.39
2016-08-03T00:25:40.776Z,16.35
2016-08-03T00:26:40.794Z,16.31
2016-08-03T00:27:40.818Z,16.27
2016-08-03T00:28:41.681Z,16.34
2016-08-03T00:29:40.878Z,16.34
2016-08-03T00:31:40.932Z,16.31
2016-08-03T00:32:40.950Z,16.33
2016-08-03T00:33:40.978Z,16.3
2016-08-03T00:34:41.010Z,16.31
2016-08-03T00:35:41.047Z,16.21
2016-08-03T00:36:41.056Z,16.25
2016-08-03T00:37:41.082Z,16.28
2016-08-03T00:38:41.107Z,16.31
2016-08-03T00:39:41.132Z,16.3
2016-08-03T00:40:41.159Z,16.24
2016-08-03T00:42:41.220Z,16.09
2016-08-03T00:44:41.264Z,16.09
2016-08-03T00:45:56.210Z,16.08
2016-08-03T00:46:41.317Z,16.08
2016-08-03T00:47:56.261Z,16.11
2016-08-03T00:48:41.366Z,16.05
2016-08-03T00:49:41.401Z,16.21
2016-08-03T00:50:41.416Z,16.09
2016-08-03T00:51:41.442Z,16.15
2016-08-03T00:52:41.463Z,16.05
2016-08-03T00:53:41.490Z,16.04
2016-08-03T00:54:41.520Z,16.04
2016-08-03T00:55:41.544Z,15.97
2016-08-03T00:56:41.572Z,16.01
2016-08-03T00:57:41.601Z,15.96
2016-08-03T00:59:41.644Z,16.01
2016-08-03T01:01:41.699Z,15.83
2016-08-03T01:02:41.723Z,15.78
2016-08-03T01:03:41.750Z,15.76
2016-08-03T01:04:41.781Z,15.76
2016-08-03T01:05:41.797Z,15.69
2016-08-03T01:06:41.829Z,15.69
2016-08-03T01:07:41.853Z,15.65
2016-08-03T01:08:41.880Z,15.76
2016-08-03T01:09:41.906Z,15.68
2016-08-03T01:10:41.934Z,15.78
2016-08-03T01:11:41.957Z,15.78
2016-08-03T01:12:41.988Z,15.71
2016-08-03T01:14:42.034Z,15.59
2016-08-03T01:15:42.055Z,15.68
2016-08-03T01:17:57.035Z,15.57
2016-08-03T01:18:42.134Z,15.65
2016-08-03T01:19:42.164Z,15.65
2016-08-03T01:20:42.304Z,15.59
2016-08-03T01:21:42.264Z,15.56
2016-08-03T01:22:42.241Z,15.56
2016-08-03T01:23:42.313Z,15.57
2016-08-03T01:24:42.289Z,15.5
2016-08-03T01:25:42.314Z,15.53
2016-08-03T01:26:42.340Z,15.54
2016-08-03T01:27:42.367Z,15.57
2016-08-03T01:28:42.390Z,15.51
2016-08-03T01:29:42.420Z,15.6
2016-08-03T01:30:57.367Z,15.59
2016-08-03T01:31:57.392Z,15.57
2016-08-03T01:32:42.495Z,15.72
2016-08-03T01:34:42.548Z,15.65
2016-08-03T01:35:42.571Z,15.69
2016-08-03T01:36:42.589Z,15.8
2016-08-03T01:37:42.621Z,15.8
2016-08-03T01:38:42.644Z,15.87
2016-08-03T01:39:42.670Z,15.87
2016-08-03T01:40:42.695Z,15.92
2016-08-03T01:41:42.722Z,15.89
2016-08-03T01:42:42.752Z,15.83
2016-08-03T01:43:42.766Z,15.9
2016-08-03T01:44:42.810Z,15.86
2016-08-03T01:45:42.822Z,15.86
2016-08-03T01:46:42.846Z,15.84
2016-08-03T01:47:42.879Z,15.9
2016-08-03T01:48:42.906Z,16
2016-08-03T01:49:57.849Z,16.04
2016-08-03T01:50:42.957Z,15.97
2016-08-03T01:51:42.981Z,16.01
2016-08-03T01:52:43.006Z,15.96
2016-08-03T01:53:43.025Z,16.02
2016-08-03T01:54:43.054Z,15.97
2016-08-03T01:55:43.076Z,15.96
2016-08-03T01:56:43.106Z,16
2016-08-03T01:57:43.133Z,15.93
2016-08-03T01:58:43.157Z,15.97
2016-08-03T01:59:43.180Z,16
2016-08-03T02:00:43.209Z,15.89
2016-08-03T02:01:43.233Z,15.92
2016-08-03T02:02:43.254Z,15.83
2016-08-03T02:05:58.308Z,15.83
2016-08-03T02:06:43.366Z,15.87
2016-08-03T02:07:43.387Z,15.84
2016-08-03T02:08:43.415Z,15.89
2016-08-03T02:09:43.440Z,15.84
2016-08-03T02:10:43.467Z,15.89
2016-08-03T02:11:43.493Z,15.9
2016-08-03T02:12:43.512Z,15.92
2016-08-03T02:13:43.549Z,15.9
2016-08-03T02:14:43.563Z,15.84
2016-08-03T02:15:43.587Z,15.84
2016-08-03T02:16:43.613Z,15.87
2016-08-03T02:17:43.636Z,15.86
2016-08-03T02:18:58.590Z,15.83
2016-08-03T02:19:43.693Z,15.83
2016-08-03T02:20:58.638Z,15.92
2016-08-03T02:21:43.741Z,15.9
2016-08-03T02:22:43.775Z,15.87
2016-08-03T02:23:43.796Z,15.89
2016-08-03T02:24:43.967Z,15.8
2016-08-03T02:25:43.848Z,15.84
2016-08-03T02:26:43.869Z,15.8
2016-08-03T02:28:43.920Z,15.94
2016-08-03T02:29:43.942Z,15.9
2016-08-03T02:30:43.974Z,15.84
2016-08-03T02:31:44.001Z,15.84
2016-08-03T02:32:44.026Z,15.82
2016-08-03T02:34:44.073Z,15.89
2016-08-03T02:35:44.097Z,15.97
2016-08-03T02:36:59.047Z,16.04
2016-08-03T02:37:44.154Z,15.97
2016-08-03T02:38:44.175Z,15.93
2016-08-03T02:39:44.205Z,15.89
2016-08-03T02:40:44.230Z,15.84
2016-08-03T02:41:44.254Z,15.87
2016-08-03T02:42:44.285Z,15.83
2016-08-03T02:43:44.306Z,15.86
2016-08-03T02:44:44.329Z,15.84
2016-08-03T02:45:44.356Z,15.9
2016-08-03T02:46:44.372Z,15.89
2016-08-03T02:47:44.406Z,15.87
2016-08-03T02:48:44.429Z,15.86
2016-08-03T02:49:59.381Z,15.83
2016-08-03T02:51:44.508Z,15.97
2016-08-03T02:52:59.453Z,15.9
2016-08-03T02:53:44.577Z,15.93
2016-08-03T02:54:44.596Z,15.96
2016-08-03T02:55:44.610Z,15.87
2016-08-03T02:56:44.638Z,15.89
2016-08-03T02:57:44.657Z,15.9
2016-08-03T02:58:44.689Z,16.04
2016-08-03T02:59:44.704Z,15.94
2016-08-03T03:00:44.735Z,15.82
2016-08-03T03:01:44.761Z,15.87
2016-08-03T03:02:44.794Z,15.84
2016-08-03T03:03:44.810Z,15.83
2016-08-03T03:04:44.834Z,15.83
2016-08-03T03:05:44.869Z,15.76
2016-08-03T03:06:44.883Z,15.74
2016-08-03T03:07:44.916Z,15.83
2016-08-03T03:08:59.876Z,15.87
2016-08-03T03:09:44.972Z,15.87
2016-08-03T03:10:44.996Z,15.82
2016-08-03T03:11:45.014Z,15.82
2016-08-03T03:12:45.729Z,15.76
2016-08-03T03:13:45.071Z,15.84
2016-08-03T03:14:45.102Z,15.86
2016-08-03T03:15:45.130Z,15.84
2016-08-03T03:16:45.144Z,15.84
2016-08-03T03:18:45.204Z,15.8
2016-08-03T03:19:45.219Z,15.84
2016-08-03T03:20:45.247Z,15.92
2016-08-03T03:21:45.268Z,15.83
2016-08-03T03:22:45.300Z,15.96
2016-08-03T03:23:45.321Z,15.93
2016-08-03T03:25:00.267Z,16.04
2016-08-03T03:25:45.376Z,16.01
2016-08-03T03:26:45.452Z,15.92
2016-08-03T03:27:45.477Z,15.97
2016-08-03T03:28:45.444Z,16
2016-08-03T03:29:45.476Z,16.01
2016-08-03T03:30:45.507Z,15.96
2016-08-03T03:31:45.526Z,15.94
2016-08-03T03:32:45.545Z,15.97
2016-08-03T03:33:45.580Z,16.02
2016-08-03T03:34:45.600Z,16
2016-08-03T03:35:45.633Z,16.02
2016-08-03T03:37:45.678Z,15.97
2016-08-03T03:38:45.707Z,16.02
2016-08-03T03:39:45.732Z,16.02
2016-08-03T03:41:00.679Z,16
2016-08-03T03:41:45.786Z,16.04
2016-08-03T03:42:45.804Z,16.15
2016-08-03T03:43:45.832Z,16.04
2016-08-03T03:44:45.856Z,16.09
2016-08-03T03:45:45.881Z,16.12
2016-08-03T03:46:45.904Z,16.09
2016-08-03T03:47:45.933Z,16.14
2016-08-03T03:48:45.962Z,16.09
2016-08-03T03:49:45.986Z,16.21
2016-08-03T03:50:46.011Z,16.21
2016-08-03T03:51:46.040Z,16.21
2016-08-03T03:52:46.067Z,16.25
2016-08-03T03:53:46.082Z,16.27
2016-08-03T03:54:46.120Z,16.21
2016-08-03T03:56:01.064Z,16.31
2016-08-03T03:56:46.167Z,16.24
2016-08-03T03:57:46.187Z,16.27
2016-08-03T03:58:46.220Z,16.3
2016-08-03T03:59:46.244Z,16.33
2016-08-03T04:00:46.265Z,16.31
2016-08-03T04:01:46.293Z,16.25
2016-08-03T04:02:46.332Z,16.33
2016-08-03T04:03:46.341Z,16.35
2016-08-03T04:04:46.362Z,16.41
2016-08-03T04:05:46.388Z,16.43
2016-08-03T04:06:46.422Z,16.31
2016-08-03T04:07:46.443Z,16.45
2016-08-03T04:08:46.468Z,16.42
2016-08-03T04:09:46.499Z,16.48
2016-08-03T04:10:46.528Z,16.52
2016-08-03T04:11:46.550Z,16.56
2016-08-03T04:13:01.492Z,16.58
2016-08-03T04:13:46.595Z,16.6
2016-08-03T04:14:46.625Z,16.67
2016-08-03T04:16:46.675Z,16.76
2016-08-03T04:17:46.702Z,16.85
2016-08-03T04:18:46.727Z,16.85
2016-08-03T04:19:46.750Z,16.89
2016-08-03T04:20:46.779Z,16.83
2016-08-03T04:21:46.804Z,16.83
2016-08-03T04:22:46.828Z,16.88
2016-08-03T04:23:46.856Z,16.89
2016-08-03T04:25:46.904Z,16.7
2016-08-03T04:26:46.933Z,16.73
2016-08-03T04:28:01.931Z,16.66
2016-08-03T04:28:46.982Z,16.68
2016-08-03T04:29:47.006Z,16.71
2016-08-03T04:31:01.952Z,16.66
2016-08-03T04:31:47.050Z,16.66
2016-08-03T04:32:47.096Z,16.71
2016-08-03T04:33:47.119Z,16.76
2016-08-03T04:35:47.159Z,16.85
2016-08-03T04:36:47.185Z,16.85
2016-08-03T04:37:47.212Z,16.85
2016-08-03T04:38:47.235Z,16.83
2016-08-03T04:39:47.261Z,16.82
2016-08-03T04:40:47.290Z,16.91
2016-08-03T04:42:47.343Z,16.88
2016-08-03T04:44:02.291Z,16.82
2016-08-03T04:44:47.395Z,16.83
2016-08-03T04:45:47.419Z,16.86
2016-08-03T04:46:47.452Z,16.93
2016-08-03T04:47:47.469Z,16.93
2016-08-03T04:48:47.492Z,16.97
2016-08-03T04:49:47.524Z,16.94
2016-08-03T04:50:47.550Z,17.08
2016-08-03T04:51:47.571Z,17.04
2016-08-03T04:52:47.599Z,17.12
2016-08-03T04:53:48.323Z,17.19
2016-08-03T04:55:02.577Z,17.19
2016-08-03T04:56:02.603Z,17.16
2016-08-03T04:57:47.736Z,17.26
2016-08-03T04:58:47.758Z,17.38
2016-08-03T05:00:02.707Z,17.51
2016-08-03T05:00:47.810Z,17.55
2016-08-03T05:01:47.832Z,17.7
2016-08-03T05:02:47.865Z,17.64
2016-08-03T05:03:47.879Z,17.72
2016-08-03T05:04:47.906Z,17.78
2016-08-03T05:05:47.939Z,17.79
2016-08-03T05:06:47.965Z,17.9
2016-08-03T05:07:47.984Z,17.93
2016-08-03T05:09:48.037Z,17.96
2016-08-03T05:10:48.063Z,18.12
2016-08-03T05:11:48.088Z,18.26
2016-08-03T05:12:48.119Z,18.41
2016-08-03T05:13:48.148Z,18.39
2016-08-03T05:16:03.119Z,18.29
2016-08-03T05:16:48.230Z,18.26
2016-08-03T05:17:48.256Z,18.2
2016-08-03T05:18:48.273Z,18.2
2016-08-03T05:19:48.301Z,18.23
2016-08-03T05:20:48.327Z,18.2
2016-08-03T05:21:48.362Z,18.3
2016-08-03T05:22:48.377Z,18.2
2016-08-03T05:23:48.409Z,18.27
2016-08-03T05:24:48.440Z,18.26
2016-08-03T05:25:48.449Z,18.32
2016-08-03T05:26:48.482Z,18.35
2016-08-03T05:27:48.507Z,18.44
2016-08-03T05:29:03.514Z,18.37
2016-08-03T05:29:48.560Z,18.41
2016-08-03T05:31:03.517Z,18.39
2016-08-03T05:31:48.673Z,18.3
2016-08-03T05:32:48.688Z,18.3
2016-08-03T05:33:48.663Z,18.25
2016-08-03T05:34:48.699Z,18.2
2016-08-03T05:35:48.724Z,18.12
2016-08-03T05:36:48.741Z,18.12
2016-08-03T05:37:48.776Z,18.07
2016-08-03T05:39:48.828Z,18.1
2016-08-03T05:40:48.852Z,18.08
2016-08-03T05:41:48.876Z,18.1
2016-08-03T05:43:03.831Z,17.95
2016-08-03T05:43:48.926Z,17.92
2016-08-03T05:44:48.953Z,17.93
2016-08-03T05:45:48.979Z,17.99
2016-08-03T05:46:49.008Z,17.95
2016-08-03T05:48:03.956Z,17.97
2016-08-03T05:48:49.069Z,17.93
2016-08-03T05:49:49.088Z,17.96
2016-08-03T05:50:49.112Z,17.97
2016-08-03T05:51:49.139Z,17.92
2016-08-03T05:52:49.162Z,17.93
2016-08-03T05:53:49.198Z,17.96
2016-08-03T05:54:49.214Z,17.96
2016-08-03T05:55:49.250Z,18
2016-08-03T05:56:49.270Z,17.99
2016-08-03T05:57:49.292Z,18.1
2016-08-03T05:58:49.322Z,18.08
2016-08-03T06:00:49.371Z,18.37
2016-08-03T06:01:49.401Z,18.42
2016-08-03T06:03:04.345Z,18.39
2016-08-03T06:03:49.445Z,18.51
2016-08-03T06:04:49.478Z,18.45
2016-08-03T06:05:49.503Z,18.45
2016-08-03T06:06:49.530Z,18.54
2016-08-03T06:07:49.554Z,18.54
2016-08-03T06:08:49.579Z,18.58
2016-08-03T06:09:49.611Z,18.75
2016-08-03T06:10:49.635Z,18.88
2016-08-03T06:11:49.666Z,19
2016-08-03T06:12:49.686Z,19.07
2016-08-03T06:14:49.750Z,19.16
2016-08-03T06:15:49.769Z,19.21
2016-08-03T06:17:04.715Z,19.21
2016-08-03T06:19:04.767Z,19.31
2016-08-03T06:19:49.870Z,19.23
2016-08-03T06:20:49.899Z,19.32
2016-08-03T06:21:49.926Z,19.33
2016-08-03T06:22:49.956Z,19.31
2016-08-03T06:23:49.976Z,19.37
2016-08-03T06:24:50.002Z,19.41
2016-08-03T06:25:50.025Z,19.36
2016-08-03T06:26:50.058Z,19.29
2016-08-03T06:27:50.084Z,19.28
2016-08-03T06:28:50.112Z,19.22
2016-08-03T06:29:50.131Z,19.37
2016-08-03T06:30:50.171Z,19.4
2016-08-03T06:31:50.188Z,19.39
2016-08-03T06:32:50.209Z,19.29
2016-08-03T06:33:50.988Z,19.28
2016-08-03T06:35:05.241Z,19.25
2016-08-03T06:35:50.295Z,19.36
2016-08-03T06:36:50.324Z,19.37
2016-08-03T06:37:50.349Z,19.41
2016-08-03T06:38:50.371Z,19.47
2016-08-03T06:39:50.400Z,19.47
2016-08-03T06:40:50.425Z,19.48
2016-08-03T06:41:50.455Z,19.55
2016-08-03T06:42:50.479Z,19.68
2016-08-03T06:43:50.507Z,19.59
2016-08-03T06:44:50.529Z,19.61
2016-08-03T06:45:50.559Z,19.61
2016-08-03T06:47:05.513Z,19.77
2016-08-03T06:47:50.612Z,19.8
2016-08-03T06:48:50.644Z,19.8
2016-08-03T06:49:50.666Z,19.8
2016-08-03T06:51:05.615Z,19.74
2016-08-03T06:51:50.719Z,19.87
2016-08-03T06:52:50.746Z,19.87
2016-08-03T06:53:50.771Z,20.02
2016-08-03T06:54:50.801Z,20.02
2016-08-03T06:55:50.832Z,20.1
2016-08-03T06:56:50.855Z,20.24
2016-08-03T06:57:50.879Z,20.26
2016-08-03T06:58:50.910Z,20.31
2016-08-03T06:59:50.929Z,20.39
2016-08-03T07:00:50.966Z,20.43
2016-08-03T07:01:50.986Z,20.33
2016-08-03T07:02:51.010Z,20.39
2016-08-03T07:05:05.993Z,20.41
2016-08-03T07:06:06.025Z,20.31
2016-08-03T07:07:51.153Z,20.33
2016-08-03T07:08:51.175Z,20.38
2016-08-03T07:09:51.201Z,20.32
2016-08-03T07:10:51.229Z,20.43
2016-08-03T07:11:51.253Z,20.41
2016-08-03T07:12:51.281Z,20.42
2016-08-03T07:13:51.324Z,20.42
2016-08-03T07:14:51.335Z,20.47
2016-08-03T07:15:51.366Z,20.51
2016-08-03T07:16:51.392Z,20.52
2016-08-03T07:18:06.341Z,20.57
2016-08-03T07:18:51.440Z,20.66
2016-08-03T07:19:51.465Z,20.67
2016-08-03T07:20:51.508Z,20.7
2016-08-03T07:21:51.525Z,20.72
2016-08-03T07:22:51.551Z,20.74
2016-08-03T07:23:51.577Z,20.79
2016-08-03T07:24:51.607Z,20.69
2016-08-03T07:25:51.638Z,20.82
2016-08-03T07:26:51.659Z,20.92
2016-08-03T07:27:51.688Z,20.97
2016-08-03T07:28:51.719Z,21.07
2016-08-03T07:29:51.739Z,20.94
2016-08-03T07:30:51.766Z,20.98
2016-08-03T07:31:51.797Z,21.13
2016-08-03T07:32:51.816Z,21.17
2016-08-03T07:33:52.050Z,21.35
2016-08-03T07:34:51.872Z,21.46
2016-08-03T07:35:51.900Z,21.38
2016-08-03T07:37:06.950Z,21.5
2016-08-03T07:38:06.886Z,21.61
2016-08-03T07:38:52.036Z,21.61
2016-08-03T07:39:52.011Z,21.59
2016-08-03T07:40:52.038Z,21.58
2016-08-03T07:41:52.774Z,21.67
2016-08-03T07:42:52.095Z,21.61
2016-08-03T07:43:52.120Z,21.62
2016-08-03T07:44:52.153Z,21.72
2016-08-03T07:45:52.174Z,21.72
2016-08-03T07:46:52.204Z,21.58
2016-08-03T07:47:52.233Z,21.58
2016-08-03T07:48:52.256Z,21.47
2016-08-03T07:49:52.284Z,21.43
2016-08-03T07:50:52.317Z,21.43
2016-08-03T07:51:52.339Z,21.56
2016-08-03T07:52:52.373Z,21.59
2016-08-03T07:54:07.322Z,21.56
2016-08-03T07:55:07.343Z,21.59
2016-08-03T07:56:07.369Z,21.47
2016-08-03T07:56:53.175Z,21.65
2016-08-03T07:57:52.506Z,21.54
2016-08-03T07:58:52.534Z,21.5
2016-08-03T07:59:52.564Z,21.64
2016-08-03T08:00:52.596Z,21.49
2016-08-03T08:01:52.624Z,21.59
2016-08-03T08:02:52.642Z,21.75
2016-08-03T08:03:52.673Z,21.86
2016-08-03T08:04:52.702Z,21.92
2016-08-03T08:06:07.648Z,21.82
2016-08-03T08:07:07.675Z,21.98
2016-08-03T08:07:52.782Z,21.86
2016-08-03T08:08:52.809Z,21.99
2016-08-03T08:10:07.757Z,22.07
2016-08-03T08:10:52.861Z,22.17
2016-08-03T08:11:52.901Z,22.06
2016-08-03T08:12:52.921Z,22.2
2016-08-03T08:13:52.946Z,22.09
2016-08-03T08:14:52.970Z,22.02
2016-08-03T08:15:52.997Z,21.98
2016-08-03T08:16:53.024Z,21.83
2016-08-03T08:17:53.050Z,21.75
2016-08-03T08:18:53.078Z,21.59
2016-08-03T08:19:53.110Z,21.62
2016-08-03T08:21:08.064Z,21.54
2016-08-03T08:22:08.090Z,21.49
2016-08-03T08:23:53.217Z,21.47
2016-08-03T08:24:53.252Z,21.46
2016-08-03T08:26:08.193Z,21.43
2016-08-03T08:26:53.303Z,21.46
2016-08-03T08:27:53.326Z,21.38
2016-08-03T08:28:53.360Z,21.32
2016-08-03T08:29:53.401Z,21.28
2016-08-03T08:30:53.412Z,21.27
2016-08-03T08:31:53.433Z,21.25
2016-08-03T08:32:53.467Z,21.25
2016-08-03T08:33:53.487Z,21.21
2016-08-03T08:34:53.526Z,21.22
2016-08-03T08:35:53.550Z,21.24
2016-08-03T08:37:53.603Z,21.21
2016-08-03T08:38:53.631Z,21.21
2016-08-03T08:39:53.671Z,21.19
2016-08-03T08:41:08.609Z,21.17
2016-08-03T08:41:53.716Z,21.17
2016-08-03T08:43:08.657Z,21.24
2016-08-03T08:43:53.772Z,21.1
2016-08-03T08:44:53.794Z,21.03
2016-08-03T08:46:53.848Z,21.07
2016-08-03T08:48:53.906Z,20.92
2016-08-03T08:49:53.935Z,20.94
2016-08-03T08:50:53.962Z,20.95
2016-08-03T08:51:53.982Z,20.89
2016-08-03T08:52:54.013Z,20.97
2016-08-03T08:53:54.050Z,20.95
2016-08-03T08:54:54.072Z,20.99
2016-08-03T08:55:54.094Z,20.94
2016-08-03T08:56:54.117Z,20.97
2016-08-03T08:58:09.072Z,20.97
2016-08-03T08:58:54.180Z,20.95
2016-08-03T08:59:54.202Z,21.07
2016-08-03T09:01:54.258Z,21.09
2016-08-03T09:02:54.284Z,21.14
2016-08-03T09:03:54.321Z,20.97
2016-08-03T09:04:54.342Z,20.98
2016-08-03T09:05:54.367Z,20.95
2016-08-03T09:06:54.392Z,20.88
2016-08-03T09:07:54.431Z,20.82
2016-08-03T09:08:54.456Z,20.85
2016-08-03T09:09:54.470Z,20.89
2016-08-03T09:10:54.501Z,20.88
2016-08-03T09:11:54.525Z,20.84
2016-08-03T09:13:09.479Z,20.67
2016-08-03T09:13:54.581Z,20.7
2016-08-03T09:14:54.603Z,20.7
2016-08-03T09:16:54.658Z,20.7
2016-08-03T09:17:54.689Z,20.7
2016-08-03T09:18:55.478Z,20.76
2016-08-03T09:19:54.742Z,20.84
2016-08-03T09:20:54.774Z,20.84
2016-08-03T09:21:54.805Z,20.89
2016-08-03T09:22:54.827Z,20.91
2016-08-03T09:25:09.807Z,21.07
2016-08-03T09:25:54.916Z,21.12
2016-08-03T09:26:54.938Z,21.22
2016-08-03T09:27:54.958Z,21.25
2016-08-03T09:29:09.919Z,21.38
2016-08-03T09:29:55.017Z,21.42
2016-08-03T09:31:55.075Z,21.54
2016-08-03T09:32:55.102Z,21.56
2016-08-03T09:33:55.125Z,21.62
2016-08-03T09:34:55.159Z,21.71
2016-08-03T09:35:55.191Z,21.71
2016-08-03T09:36:55.209Z,21.67
2016-08-03T09:37:55.236Z,21.69
2016-08-03T09:38:55.968Z,21.61
2016-08-03T09:39:55.992Z,21.58
2016-08-03T09:41:10.296Z,21.52
2016-08-03T09:41:55.343Z,21.43
2016-08-03T09:42:55.368Z,21.42
2016-08-03T09:43:55.400Z,21.4
2016-08-03T09:45:10.350Z,21.32
2016-08-03T09:46:55.479Z,21.46
2016-08-03T09:47:55.504Z,21.52
2016-08-03T09:48:55.545Z,21.34
2016-08-03T09:49:55.564Z,21.5
2016-08-03T09:50:55.600Z,21.46
2016-08-03T09:51:55.621Z,21.46
2016-08-03T09:52:55.643Z,21.5
2016-08-03T09:53:55.678Z,21.47
2016-08-03T09:54:55.698Z,21.58
2016-08-03T09:55:55.731Z,21.54
2016-08-03T09:58:10.708Z,21.56
2016-08-03T09:58:55.817Z,21.58
2016-08-03T09:59:55.833Z,21.68
2016-08-03T10:01:11.621Z,21.83
2016-08-03T10:01:55.894Z,21.86
2016-08-03T10:02:55.928Z,21.99
2016-08-03T10:03:55.952Z,21.86
2016-08-03T10:04:55.971Z,21.86
2016-08-03T10:05:56.009Z,21.86
2016-08-03T10:06:56.035Z,21.92
2016-08-03T10:07:56.058Z,21.99
2016-08-03T10:08:56.090Z,22.12
2016-08-03T10:09:56.107Z,22.05
2016-08-03T10:10:56.146Z,22.17
2016-08-03T10:11:56.171Z,22.17
2016-08-03T10:12:56.194Z,22.2
2016-08-03T10:13:56.227Z,22.12
2016-08-03T10:14:56.253Z,22.22
2016-08-03T10:16:11.901Z,22.24
2016-08-03T10:16:56.307Z,22.24
2016-08-03T10:17:56.342Z,22.12
2016-08-03T10:18:56.363Z,22.05
2016-08-03T10:19:56.386Z,22.28
2016-08-03T10:20:56.415Z,22.28
2016-08-03T10:21:56.449Z,22.46
2016-08-03T10:22:56.474Z,22.54
2016-08-03T10:23:56.503Z,22.7
2016-08-03T10:24:56.531Z,22.77
2016-08-03T10:25:56.555Z,22.82
2016-08-03T10:26:57.289Z,22.73
2016-08-03T10:27:56.622Z,22.7
2016-08-03T10:28:56.644Z,22.75
2016-08-03T10:29:56.672Z,22.68
2016-08-03T10:30:56.700Z,22.82
2016-08-03T10:31:56.723Z,22.91
2016-08-03T10:33:11.675Z,22.77
2016-08-03T10:33:56.787Z,22.8
2016-08-03T10:34:56.812Z,22.77
2016-08-03T10:35:56.842Z,22.95
2016-08-03T10:36:56.861Z,23
2016-08-03T10:37:56.894Z,23
2016-08-03T10:38:56.927Z,23
2016-08-03T10:39:56.952Z,23.01
2016-08-03T10:40:56.976Z,23.12
2016-08-03T10:42:57.034Z,23.35
2016-08-03T10:43:57.059Z,23.4
2016-08-03T10:44:57.092Z,23.5
2016-08-03T10:45:57.126Z,23.53
2016-08-03T10:46:57.150Z,23.63
2016-08-03T10:48:12.102Z,23.61
2016-08-03T10:48:57.206Z,23.7
2016-08-03T10:49:57.233Z,23.79
2016-08-03T10:50:57.309Z,23.7
2016-08-03T10:51:57.337Z,23.79
2016-08-03T10:53:12.251Z,23.55
2016-08-03T10:53:57.346Z,23.63
2016-08-03T10:54:57.371Z,23.73
2016-08-03T10:55:57.402Z,23.69
2016-08-03T10:57:57.457Z,23.76
2016-08-03T10:58:57.485Z,23.57
2016-08-03T10:59:57.520Z,23.38
2016-08-03T11:00:57.546Z,23.38
2016-08-03T11:02:12.497Z,23.2
2016-08-03T11:02:57.594Z,23.17
2016-08-03T11:04:12.558Z,23.04
2016-08-03T11:04:57.662Z,23.12
2016-08-03T11:05:57.686Z,23.17
2016-08-03T11:06:57.716Z,23.22
2016-08-03T11:07:57.749Z,23.28
2016-08-03T11:08:57.769Z,23.27
2016-08-03T11:09:57.795Z,23.48
2016-08-03T11:10:57.826Z,23.68
2016-08-03T11:11:57.861Z,23.84
2016-08-03T11:12:57.885Z,23.87
2016-08-03T11:13:57.915Z,24.1
2016-08-03T11:14:57.947Z,24.27
2016-08-03T11:15:57.968Z,24.46
2016-08-03T11:16:57.996Z,24.47
2016-08-03T11:17:58.029Z,24.4
2016-08-03T11:18:58.058Z,24.57
2016-08-03T11:20:13.011Z,24.47
2016-08-03T11:21:13.052Z,24.22
2016-08-03T11:21:58.838Z,24.22
2016-08-03T11:22:58.177Z,24.1
2016-08-03T11:23:58.207Z,24.03
2016-08-03T11:24:58.222Z,24.12
2016-08-03T11:25:58.262Z,24.05
2016-08-03T11:26:58.281Z,23.93
2016-08-03T11:27:58.308Z,23.85
2016-08-03T11:29:58.390Z,23.95
2016-08-03T11:30:58.397Z,23.97
2016-08-03T11:31:58.430Z,24.1
2016-08-03T11:32:58.465Z,24.1
2016-08-03T11:33:58.491Z,24.31
2016-08-03T11:34:58.522Z,24.31
2016-08-03T11:36:13.472Z,24.37
2016-08-03T11:36:58.579Z,24.35
2016-08-03T11:37:58.604Z,24.24
2016-08-03T11:38:58.626Z,24.22
2016-08-03T11:39:58.664Z,24.1
2016-08-03T11:40:59.380Z,24.09
2016-08-03T11:41:58.719Z,24.03
2016-08-03T11:42:58.744Z,24.03
2016-08-03T11:43:58.779Z,24.08
2016-08-03T11:44:58.812Z,24.13
2016-08-03T11:45:58.833Z,24.05
2016-08-03T11:46:58.863Z,23.91
2016-08-03T11:47:58.891Z,23.95
2016-08-03T11:48:58.920Z,24.08
2016-08-03T11:49:58.949Z,24.27
2016-08-03T11:51:13.899Z,24.28
2016-08-03T11:51:59.064Z,24.22
2016-08-03T11:52:59.035Z,24.34
2016-08-03T11:53:59.063Z,24.35
2016-08-03T11:54:59.144Z,24.39
2016-08-03T11:55:59.123Z,24.27
2016-08-03T11:56:59.150Z,24.15
2016-08-03T11:57:59.184Z,24.16
2016-08-03T11:58:59.203Z,24.08
2016-08-03T11:59:59.235Z,23.97
2016-08-03T12:00:59.266Z,23.87
2016-08-03T12:01:59.296Z,23.83
2016-08-03T12:02:59.324Z,23.7
2016-08-03T12:04:59.378Z,23.57
2016-08-03T12:06:14.336Z,23.55
2016-08-03T12:06:59.439Z,23.61
2016-08-03T12:07:59.474Z,23.42
2016-08-03T12:08:59.497Z,23.25
2016-08-03T12:09:59.531Z,23.36
2016-08-03T12:10:59.553Z,23.31
2016-08-03T12:11:59.587Z,23.31
2016-08-03T12:12:59.613Z,23.1
2016-08-03T12:13:59.643Z,23.16
2016-08-03T12:14:59.664Z,23.12
2016-08-03T12:15:59.696Z,23.02
2016-08-03T12:16:59.721Z,23.01
2016-08-03T12:17:59.766Z,23
2016-08-03T12:18:59.780Z,22.97
2016-08-03T12:19:59.807Z,23
2016-08-03T12:20:59.843Z,22.98
2016-08-03T12:21:59.864Z,22.86
2016-08-03T12:23:14.817Z,22.95
2016-08-03T12:23:59.921Z,22.9
2016-08-03T12:24:59.950Z,22.85
2016-08-03T12:25:59.975Z,22.92
2016-08-03T12:27:00.004Z,22.97
2016-08-03T12:28:00.035Z,22.95
2016-08-03T12:29:00.071Z,22.85
2016-08-03T12:30:00.092Z,22.98
2016-08-03T12:31:00.125Z,23
2016-08-03T12:32:00.146Z,23.02
2016-08-03T12:35:00.242Z,23.39
2016-08-03T12:36:00.272Z,23.46
2016-08-03T12:38:00.321Z,23.73
2016-08-03T12:39:15.276Z,23.87
2016-08-03T12:40:00.384Z,23.75
2016-08-03T12:41:00.413Z,23.79
2016-08-03T12:42:00.436Z,23.85
2016-08-03T12:43:00.482Z,23.87
2016-08-03T12:44:00.490Z,23.93
2016-08-03T12:45:00.533Z,24.13
2016-08-03T12:46:00.549Z,24.22
2016-08-03T12:47:00.580Z,24.25
2016-08-03T12:48:00.602Z,24.24
2016-08-03T12:50:15.589Z,24.6
2016-08-03T12:51:00.689Z,24.85
2016-08-03T12:52:00.720Z,25.1
2016-08-03T12:53:00.796Z,25.15
2016-08-03T12:54:00.783Z,25.47
2016-08-03T12:55:15.775Z,25.65
2016-08-03T12:56:00.851Z,25.77
2016-08-03T12:57:00.869Z,25.92
2016-08-03T12:58:00.897Z,25.8
2016-08-03T12:59:00.925Z,25.73
2016-08-03T13:00:01.006Z,25.77
2016-08-03T13:02:01.019Z,25.69
2016-08-03T13:03:01.041Z,25.47
2016-08-03T13:04:01.070Z,25.32
2016-08-03T13:05:01.093Z,25.25
2016-08-03T13:06:01.357Z,25.18
2016-08-03T13:07:16.081Z,25.06
2016-08-03T13:08:01.195Z,25.08
2016-08-03T13:09:01.233Z,25.05
2016-08-03T13:10:01.244Z,25.15
2016-08-03T13:11:16.897Z,25.33
2016-08-03T13:12:01.302Z,25.54
2016-08-03T13:13:01.348Z,25.76
2016-08-03T13:14:01.362Z,26.02
2016-08-03T13:16:01.420Z,26.39
2016-08-03T13:17:01.447Z,26.47
2016-08-03T13:18:01.478Z,26.58
2016-08-03T13:19:01.511Z,26.85
2016-08-03T13:20:01.540Z,26.89
2016-08-03T13:21:01.565Z,26.67
2016-08-03T13:22:01.600Z,26.7
2016-08-03T13:23:01.630Z,26.67
2016-08-03T13:24:01.663Z,26.63
2016-08-03T13:25:01.686Z,26.57
2016-08-03T13:26:16.643Z,26.52
2016-08-03T13:27:01.750Z,26.48
2016-08-03T13:28:01.783Z,26.32
2016-08-03T13:29:01.808Z,26.33
2016-08-03T13:30:01.844Z,26.47
2016-08-03T13:31:01.871Z,26.51
2016-08-03T13:32:01.898Z,26.54
2016-08-03T13:33:01.930Z,26.39
2016-08-03T13:34:01.958Z,26.4
2016-08-03T13:35:01.991Z,26.43
2016-08-03T13:36:16.945Z,26.25
2016-08-03T13:37:02.049Z,26.1
2016-08-03T13:39:17.033Z,26.07
2016-08-03T13:40:02.150Z,26.17
2016-08-03T13:41:02.169Z,26.28
2016-08-03T13:42:02.198Z,26.1
2016-08-03T13:43:02.238Z,25.97
2016-08-03T13:44:02.253Z,25.9
2016-08-03T13:45:02.291Z,25.99
2016-08-03T13:46:02.336Z,26.02
2016-08-03T13:47:02.350Z,26.05